createdAt,value
2022-08-26T00:01:46.472Z,1.37
2022-08-26T00:04:14.073Z,1.70
2022-08-26T00:06:42.532Z,2.33
2022-08-26T00:09:13.119Z,1.37
2022-08-26T00:11:43.631Z,1.30
2022-08-26T00:14:10.528Z,1.50
2022-08-26T00:16:37.705Z,0.90
2022-08-26T00:19:08.310Z,1.60
2022-08-26T00:21:37.590Z,1.20
2022-08-26T00:24:05.788Z,1.10
2022-08-26T00:26:34.976Z,1.43
2022-08-26T00:29:02.017Z,1.33
2022-08-26T00:31:31.230Z,1.80
2022-08-26T00:33:58.537Z,1.77
2022-08-26T00:36:29.770Z,1.30
2022-08-26T00:38:57.451Z,2.00
2022-08-26T00:41:24.385Z,1.23
2022-08-26T00:43:51.804Z,0.93
2022-08-26T00:46:24.595Z,1.30
2022-08-26T00:48:54.515Z,1.53
2022-08-26T00:51:23.875Z,1.13
2022-08-26T00:53:54.420Z,1.60
2022-08-26T00:56:33.855Z,1.17
2022-08-26T00:59:10.473Z,1.10
2022-08-26T01:01:38.240Z,1.20
2022-08-26T01:04:06.100Z,1.20
2022-08-26T01:06:32.976Z,1.10
2022-08-26T01:09:00.389Z,1.50
2022-08-26T01:11:27.910Z,1.00
2022-08-26T01:13:56.819Z,1.47
2022-08-26T01:16:25.830Z,1.17
2022-08-26T01:18:55.901Z,1.10
2022-08-26T01:21:29.888Z,1.40
2022-08-26T01:23:58.451Z,1.10
2022-08-26T01:26:30.096Z,1.57
2022-08-26T01:28:59.169Z,1.30
2022-08-26T01:31:30.281Z,1.10
2022-08-26T01:34:05.462Z,1.63
2022-08-26T01:36:32.414Z,1.00
2022-08-26T01:38:59.308Z,1.23
2022-08-26T01:41:27.244Z,1.40
2022-08-26T01:43:56.832Z,1.30
2022-08-26T01:46:26.543Z,1.60
2022-08-26T01:48:55.317Z,1.03
2022-08-26T01:51:23.765Z,1.40
2022-08-26T01:53:50.659Z,1.20
2022-08-26T01:56:17.846Z,1.00
2022-08-26T01:58:53.470Z,1.27
2022-08-26T02:01:21.689Z,1.10
2022-08-26T02:03:59.755Z,1.17
2022-08-26T02:06:26.712Z,1.23
2022-08-26T02:08:56.321Z,1.20
2022-08-26T02:11:23.388Z,1.30
2022-08-26T02:13:54.086Z,1.43
2022-08-26T02:16:24.216Z,1.27
2022-08-26T02:18:52.903Z,1.30
2022-08-26T02:21:20.694Z,1.50
2022-08-26T02:23:47.877Z,1.00
2022-08-26T02:26:19.177Z,1.10
2022-08-26T02:28:55.633Z,1.40
2022-08-26T02:31:22.745Z,1.20
2022-08-26T02:33:49.646Z,0.93
2022-08-26T02:36:24.379Z,1.13
2022-08-26T02:38:55.759Z,1.33
2022-08-26T02:41:23.084Z,0.90
2022-08-26T02:43:50.099Z,1.20
2022-08-26T02:46:27.718Z,1.17
2022-08-26T02:48:56.690Z,1.13
2022-08-26T02:51:23.555Z,1.00
2022-08-26T02:53:50.496Z,1.30
2022-08-26T02:56:18.210Z,1.03
2022-08-26T02:58:45.160Z,1.17
2022-08-26T03:01:27.070Z,1.10
2022-08-26T03:03:54.773Z,1.20
2022-08-26T03:06:21.898Z,1.20
2022-08-26T03:08:49.762Z,1.13
2022-08-26T03:11:17.512Z,1.33
2022-08-26T03:13:45.086Z,1.20
2022-08-26T03:16:13.631Z,1.10
2022-08-26T03:18:40.925Z,1.43
2022-08-26T03:21:13.393Z,0.93
2022-08-26T03:23:41.671Z,1.10
2022-08-26T03:26:12.032Z,1.17
2022-08-26T03:29:02.248Z,1.57
2022-08-26T03:31:29.910Z,1.03
2022-08-26T03:33:59.729Z,1.13
2022-08-26T03:36:27.210Z,1.23
2022-08-26T03:38:54.601Z,1.57
2022-08-26T03:41:21.740Z,1.30
2022-08-26T03:43:50.997Z,1.10
2022-08-26T03:46:19.454Z,1.20
2022-08-26T03:48:46.946Z,1.10
2022-08-26T03:51:18.030Z,1.33
2022-08-26T03:53:46.474Z,1.50
2022-08-26T03:56:13.384Z,1.37
2022-08-26T03:58:42.934Z,1.40
2022-08-26T04:01:11.050Z,0.90
2022-08-26T04:03:56.964Z,1.70
2022-08-26T04:06:32.655Z,1.73
2022-08-26T04:09:02.098Z,1.10
2022-08-26T04:11:34.173Z,1.40
2022-08-26T04:14:06.929Z,1.73
2022-08-26T04:16:34.402Z,1.10
2022-08-26T04:19:02.038Z,1.10
2022-08-26T04:21:29.187Z,1.30
2022-08-26T04:23:56.455Z,0.97
2022-08-26T04:26:26.075Z,1.00
2022-08-26T04:28:54.612Z,1.33
2022-08-26T04:31:22.298Z,1.30
2022-08-26T04:33:50.827Z,1.43
2022-08-26T04:36:19.783Z,1.50
2022-08-26T04:38:47.645Z,1.03
2022-08-26T04:41:14.892Z,1.27
2022-08-26T04:43:44.120Z,1.37
2022-08-26T04:46:13.119Z,1.70
2022-08-26T04:48:41.430Z,1.30
2022-08-26T04:51:10.042Z,1.50
2022-08-26T04:53:37.802Z,1.67
2022-08-26T04:56:05.404Z,1.10
2022-08-26T04:58:32.541Z,1.20
2022-08-26T05:00:59.971Z,1.00
2022-08-26T05:03:31.159Z,1.43
2022-08-26T05:05:58.633Z,1.40
2022-08-26T05:08:26.031Z,1.17
2022-08-26T05:10:55.584Z,1.23
2022-08-26T05:13:25.116Z,1.27
2022-08-26T05:15:52.385Z,1.20
2022-08-26T05:18:23.168Z,1.50
2022-08-26T05:20:53.939Z,1.00
2022-08-26T05:23:23.145Z,0.90
2022-08-26T05:25:54.659Z,1.40
2022-08-26T05:28:24.277Z,1.30
2022-08-26T05:30:51.894Z,1.53
2022-08-26T05:33:19.354Z,1.40
2022-08-26T05:35:47.033Z,1.80
2022-08-26T05:38:19.826Z,2.13
2022-08-26T05:40:49.346Z,1.53
2022-08-26T05:43:20.210Z,1.30
2022-08-26T05:45:49.105Z,1.27
2022-08-26T05:48:18.729Z,1.73
2022-08-26T05:50:51.374Z,1.30
2022-08-26T05:53:20.955Z,1.23
2022-08-26T05:55:53.017Z,1.30
2022-08-26T05:58:21.633Z,1.47
2022-08-26T06:01:00.017Z,1.30
2022-08-26T06:03:27.419Z,1.20
2022-08-26T06:05:54.333Z,1.40
2022-08-26T06:08:21.575Z,1.10
2022-08-26T06:10:56.950Z,1.20
2022-08-26T06:13:27.056Z,1.50
2022-08-26T06:15:59.442Z,1.30
2022-08-26T06:18:35.495Z,0.93
2022-08-26T06:21:24.356Z,1.10
2022-08-26T06:24:12.206Z,0.90
2022-08-26T06:26:40.272Z,1.30
2022-08-26T06:29:10.222Z,1.00
2022-08-26T06:31:37.374Z,1.03
2022-08-26T06:34:10.579Z,1.00
2022-08-26T06:36:39.570Z,1.07
2022-08-26T06:39:10.231Z,1.20
2022-08-26T06:41:42.789Z,1.30
2022-08-26T06:44:10.642Z,1.60
2022-08-26T06:46:37.898Z,1.17
2022-08-26T06:49:05.758Z,1.47
2022-08-26T06:51:35.224Z,1.30
2022-08-26T06:54:03.185Z,1.20
2022-08-26T06:56:43.422Z,1.20
2022-08-26T06:59:12.508Z,1.10
2022-08-26T07:01:45.009Z,1.23
2022-08-26T07:04:15.641Z,0.80
2022-08-26T07:06:49.051Z,1.17
2022-08-26T07:09:17.029Z,0.97
2022-08-26T07:11:44.767Z,0.97
2022-08-26T07:14:12.612Z,1.20
2022-08-26T07:16:40.206Z,1.20
2022-08-26T07:19:10.855Z,1.00
2022-08-26T07:21:40.503Z,0.87
2022-08-26T07:24:08.450Z,1.17
2022-08-26T07:26:38.374Z,1.10
2022-08-26T07:29:07.169Z,1.33
2022-08-26T07:31:39.482Z,1.13
2022-08-26T07:34:10.118Z,1.37
2022-08-26T07:36:36.992Z,1.10
2022-08-26T07:39:04.283Z,1.03
2022-08-26T07:41:31.201Z,1.03
2022-08-26T07:43:58.885Z,1.10
2022-08-26T07:46:29.961Z,1.47
2022-08-26T07:48:58.031Z,1.20
2022-08-26T07:51:25.401Z,0.93
2022-08-26T07:53:53.207Z,1.20
2022-08-26T07:56:21.272Z,1.00
2022-08-26T07:58:51.369Z,1.07
2022-08-26T08:01:20.491Z,1.10
2022-08-26T08:03:50.451Z,1.30
2022-08-26T08:06:19.153Z,1.47
2022-08-26T08:08:46.629Z,1.30
2022-08-26T08:11:14.782Z,1.10
2022-08-26T08:13:41.672Z,1.40
2022-08-26T08:16:12.621Z,1.40
2022-08-26T08:18:40.545Z,1.10
2022-08-26T08:21:22.182Z,1.07
2022-08-26T08:23:52.017Z,1.03
2022-08-26T08:26:19.032Z,1.20
2022-08-26T08:28:47.822Z,1.20
2022-08-26T08:31:55.978Z,1.17
2022-08-26T08:34:18.180Z,1.00
2022-08-26T08:36:46.504Z,1.03
2022-08-26T08:39:14.173Z,1.10
2022-08-26T08:42:09.181Z,1.47
2022-08-26T08:44:39.309Z,1.50
2022-08-26T08:47:16.092Z,0.97
2022-08-26T08:49:44.401Z,1.20
2022-08-26T08:52:20.247Z,1.27
2022-08-26T08:54:47.269Z,1.13
2022-08-26T08:57:54.270Z,1.00
2022-08-26T09:00:30.566Z,1.23
2022-08-26T09:03:02.807Z,1.00
2022-08-26T09:05:34.323Z,1.17
2022-08-26T09:08:11.350Z,1.20
2022-08-26T09:10:44.984Z,1.47
2022-08-26T09:13:16.789Z,0.90
2022-08-26T09:15:59.564Z,1.37
2022-08-26T09:18:48.536Z,1.10
2022-08-26T09:21:17.792Z,1.00
2022-08-26T09:23:49.242Z,0.73
2022-08-26T09:26:27.162Z,0.83
2022-08-26T09:29:01.811Z,0.93
2022-08-26T09:31:35.467Z,0.97
2022-08-26T09:34:24.254Z,1.00
2022-08-26T09:36:54.125Z,1.00
2022-08-26T09:39:37.554Z,1.23
2022-08-26T09:42:10.914Z,1.00
2022-08-26T09:45:00.654Z,0.70
2022-08-26T09:47:28.572Z,1.00
2022-08-26T09:50:12.485Z,0.90
2022-08-26T09:52:40.638Z,0.93
2022-08-26T09:55:10.207Z,1.30
2022-08-26T09:57:46.472Z,1.07
2022-08-26T10:00:38.578Z,0.90
2022-08-26T10:03:17.257Z,0.90
2022-08-26T10:05:48.649Z,0.70
2022-08-26T10:08:47.709Z,0.93
2022-08-26T10:11:33.041Z,1.00
2022-08-26T10:14:05.336Z,0.90
2022-08-26T10:16:44.143Z,0.90
2022-08-26T10:19:17.774Z,1.20
2022-08-26T10:22:04.496Z,0.90
2022-08-26T10:24:48.339Z,1.00
2022-08-26T10:27:40.498Z,0.80
2022-08-26T10:30:21.047Z,0.87
2022-08-26T10:32:54.601Z,0.77
2022-08-26T10:35:22.075Z,0.97
2022-08-26T10:37:52.022Z,0.60
2022-08-26T10:40:26.830Z,0.80
2022-08-26T10:43:08.489Z,1.10
2022-08-26T10:45:43.089Z,1.00
2022-08-26T10:48:13.476Z,0.70
2022-08-26T10:50:42.551Z,1.10
2022-08-26T10:53:45.296Z,1.00
2022-08-26T10:56:19.380Z,1.10
2022-08-26T10:58:52.280Z,1.10
2022-08-26T11:01:42.370Z,1.13
2022-08-26T11:04:35.016Z,1.07
2022-08-26T11:07:36.956Z,0.97
2022-08-26T11:10:21.116Z,1.03
2022-08-26T11:13:03.835Z,0.83
2022-08-26T11:15:31.221Z,0.67
2022-08-26T11:18:06.010Z,1.10
2022-08-26T11:20:42.433Z,0.70
2022-08-26T11:23:13.052Z,0.97
2022-08-26T11:25:59.694Z,1.10
2022-08-26T11:28:48.553Z,0.90
2022-08-26T11:31:27.507Z,0.73
2022-08-26T11:34:00.371Z,0.90
2022-08-26T11:36:41.907Z,1.00
2022-08-26T11:39:24.652Z,1.00
2022-08-26T11:41:55.723Z,0.93
2022-08-26T11:44:37.354Z,0.80
2022-08-26T11:47:06.038Z,1.30
2022-08-26T11:49:38.425Z,1.40
2022-08-26T11:52:20.973Z,1.33
2022-08-26T11:55:07.611Z,0.80
2022-08-26T11:57:40.820Z,0.90
2022-08-26T12:00:14.255Z,1.50
2022-08-26T12:02:43.946Z,0.80
2022-08-26T12:05:23.959Z,1.00
2022-08-26T12:07:54.600Z,0.60
2022-08-26T12:10:30.238Z,0.70
2022-08-26T12:12:59.382Z,0.87
2022-08-26T12:15:29.525Z,0.87
2022-08-26T12:17:58.179Z,0.90
2022-08-26T12:20:48.339Z,1.20
2022-08-26T12:23:34.654Z,1.90
2022-08-26T12:26:36.397Z,0.83
2022-08-26T12:29:26.654Z,0.70
2022-08-26T12:32:13.261Z,0.70
2022-08-26T12:34:44.544Z,0.87
2022-08-26T12:37:14.286Z,0.60
2022-08-26T12:39:44.648Z,0.80
2022-08-26T12:42:17.402Z,0.70
2022-08-26T12:45:00.341Z,0.90
2022-08-26T12:47:44.131Z,0.87
2022-08-26T12:50:22.806Z,0.90
2022-08-26T12:52:55.717Z,0.90
2022-08-26T12:55:42.494Z,1.37
2022-08-26T12:58:15.705Z,0.90
2022-08-26T13:00:43.747Z,0.73
2022-08-26T13:03:29.354Z,1.27
2022-08-26T13:06:23.710Z,1.10
2022-08-26T13:08:58.722Z,1.20
2022-08-26T13:11:54.785Z,0.70
2022-08-26T13:14:24.602Z,1.00
2022-08-26T13:16:53.183Z,1.00
2022-08-26T13:19:22.850Z,0.90
2022-08-26T13:21:57.252Z,0.97
2022-08-26T13:24:35.046Z,1.40
2022-08-26T13:27:03.550Z,1.07
2022-08-26T13:29:30.870Z,0.90
2022-08-26T13:31:58.451Z,1.00
2022-08-26T13:34:25.373Z,1.00
2022-08-26T13:36:54.429Z,0.80
2022-08-26T13:39:22.543Z,0.90
2022-08-26T13:41:50.074Z,1.03
2022-08-26T13:44:17.589Z,1.43
2022-08-26T13:49:12.690Z,1.10
2022-08-26T13:51:40.449Z,1.00
2022-08-26T13:54:07.795Z,1.33
2022-08-26T13:56:35.600Z,0.97
2022-08-26T13:59:03.300Z,0.93
2022-08-26T14:01:31.702Z,0.97
2022-08-26T14:03:58.977Z,0.93
2022-08-26T14:06:25.976Z,0.80
2022-08-26T14:08:52.973Z,1.20
2022-08-26T14:11:19.918Z,1.10
2022-08-26T14:13:46.837Z,0.93
2022-08-26T14:16:24.469Z,0.93
2022-08-26T14:18:51.608Z,1.10
2022-08-26T14:21:18.896Z,1.00
2022-08-26T14:23:45.836Z,1.07
2022-08-26T14:26:27.897Z,0.80
2022-08-26T14:28:59.996Z,0.83
2022-08-26T14:31:29.640Z,1.20
2022-08-26T14:34:02.625Z,0.70
2022-08-26T14:36:31.664Z,0.70
2022-08-26T14:39:09.124Z,1.00
2022-08-26T14:41:41.875Z,1.03
2022-08-26T14:44:12.221Z,0.87
2022-08-26T14:46:47.520Z,1.00
2022-08-26T14:49:15.388Z,0.90
2022-08-26T14:51:42.342Z,1.00
2022-08-26T14:54:13.445Z,1.13
2022-08-26T14:56:45.435Z,1.00
2022-08-26T14:59:17.794Z,1.10
2022-08-26T15:01:45.723Z,0.80
2022-08-26T15:04:12.828Z,0.80
2022-08-26T15:06:40.069Z,1.00
2022-08-26T15:09:07.307Z,1.20
2022-08-26T15:11:34.647Z,1.10
2022-08-26T15:14:01.640Z,1.03
2022-08-26T15:16:29.337Z,0.80
2022-08-26T15:18:56.783Z,0.77
2022-08-26T15:21:24.397Z,0.80
2022-08-26T15:23:52.432Z,0.90
2022-08-26T15:26:20.209Z,0.87
2022-08-26T15:28:47.279Z,0.83
2022-08-26T15:31:14.281Z,0.90
2022-08-26T15:33:41.311Z,0.80
2022-08-26T15:36:18.592Z,1.07
2022-08-26T15:38:45.510Z,1.20
2022-08-26T15:41:14.456Z,1.03
2022-08-26T15:43:42.097Z,0.90
2022-08-26T15:46:13.224Z,0.80
2022-08-26T15:48:40.406Z,0.60
2022-08-26T15:51:08.188Z,0.80
2022-08-26T15:53:35.626Z,0.90
2022-08-26T15:56:03.311Z,0.80
2022-08-26T15:58:31.007Z,0.90
2022-08-26T16:00:58.020Z,0.87
2022-08-26T16:03:24.941Z,0.70
2022-08-26T16:05:52.033Z,1.00
2022-08-26T16:08:19.158Z,0.90
2022-08-26T16:10:50.379Z,1.00
2022-08-26T16:13:19.495Z,0.70
2022-08-26T16:15:47.787Z,0.90
2022-08-26T16:18:15.817Z,0.70
2022-08-26T16:20:56.013Z,0.90
2022-08-26T16:23:39.047Z,0.70
2022-08-26T16:26:14.991Z,0.57
2022-08-26T16:28:42.347Z,1.17
2022-08-26T16:31:11.008Z,0.87
2022-08-26T16:33:38.113Z,0.70
2022-08-26T16:36:05.957Z,0.80
2022-08-26T16:38:33.414Z,2.67
2022-08-26T16:41:01.352Z,4.13
2022-08-26T16:43:28.519Z,4.40
2022-08-26T16:45:55.677Z,3.43
2022-08-26T16:48:23.794Z,1.87
2022-08-26T16:50:51.650Z,1.30
2022-08-26T16:53:19.211Z,1.20
2022-08-26T16:55:50.478Z,1.10
2022-08-26T16:58:18.087Z,1.20
2022-08-26T17:00:45.460Z,1.10
2022-08-26T17:03:12.689Z,0.80
2022-08-26T17:05:40.391Z,1.00
2022-08-26T17:08:07.528Z,0.90
2022-08-26T17:10:34.816Z,0.80
2022-08-26T17:13:01.817Z,0.80
2022-08-26T17:15:28.877Z,0.73
2022-08-26T17:17:56.799Z,1.03
2022-08-26T17:20:24.916Z,0.93
2022-08-26T17:22:53.500Z,0.80
2022-08-26T17:25:24.479Z,1.13
2022-08-26T17:27:51.478Z,0.83
2022-08-26T17:30:18.845Z,0.73
2022-08-26T17:32:45.968Z,0.80
2022-08-26T17:35:14.093Z,0.87
2022-08-26T17:37:41.726Z,0.73
2022-08-26T17:40:11.037Z,1.33
2022-08-26T17:42:38.827Z,1.00
2022-08-26T17:45:06.346Z,0.83
2022-08-26T17:47:34.143Z,0.73
2022-08-26T17:50:04.098Z,0.80
2022-08-26T17:52:31.154Z,0.90
2022-08-26T17:54:59.137Z,0.60
2022-08-26T17:57:26.760Z,1.07
2022-08-26T17:59:54.540Z,0.80
2022-08-26T18:02:21.803Z,0.90
2022-08-26T18:04:49.219Z,0.83
2022-08-26T18:07:16.904Z,1.10
2022-08-26T18:09:44.247Z,1.00
2022-08-26T18:12:11.963Z,1.13
2022-08-26T18:14:38.894Z,0.67
2022-08-26T18:17:05.945Z,0.60
2022-08-26T18:19:32.898Z,1.00
2022-08-26T18:21:59.869Z,0.73
2022-08-26T18:24:30.547Z,0.70
2022-08-26T18:26:57.642Z,0.60
2022-08-26T18:29:25.642Z,1.20
2022-08-26T18:31:52.812Z,0.80
2022-08-26T18:34:19.984Z,0.77
2022-08-26T18:36:47.258Z,0.70
2022-08-26T18:39:15.011Z,0.97
2022-08-26T18:41:46.287Z,1.37
2022-08-26T18:44:14.736Z,0.60
2022-08-26T18:46:42.086Z,0.70
2022-08-26T18:49:11.010Z,0.60
2022-08-26T18:51:38.259Z,0.90
2022-08-26T18:54:06.894Z,0.77
2022-08-26T18:56:35.817Z,1.13
2022-08-26T18:59:03.268Z,0.70
2022-08-26T19:01:31.031Z,1.10
2022-08-26T19:03:59.567Z,1.30
2022-08-26T19:06:28.414Z,1.60
2022-08-26T19:08:57.832Z,1.10
2022-08-26T19:11:31.306Z,2.47
2022-08-26T19:14:00.750Z,1.30
2022-08-26T19:16:29.019Z,1.00
2022-08-26T19:18:56.481Z,1.10
2022-08-26T19:21:23.814Z,0.70
2022-08-26T19:23:51.451Z,0.80
2022-08-26T19:26:18.808Z,0.70
2022-08-26T19:28:49.810Z,1.27
2022-08-26T19:31:20.178Z,1.50
2022-08-26T19:33:47.216Z,0.90
2022-08-26T19:36:17.835Z,0.90
2022-08-26T19:38:45.880Z,1.07
2022-08-26T19:41:18.643Z,0.97
2022-08-26T19:43:46.230Z,1.03
2022-08-26T19:46:20.197Z,1.47
2022-08-26T19:48:47.667Z,1.70
2022-08-26T19:51:40.705Z,0.97
2022-08-26T19:54:07.581Z,1.37
2022-08-26T19:56:35.099Z,2.63
2022-08-26T19:59:02.032Z,2.30
2022-08-26T20:01:28.963Z,2.20
2022-08-26T20:06:27.626Z,1.50
2022-08-26T20:08:56.379Z,1.60
2022-08-26T20:11:24.080Z,1.30
2022-08-26T20:13:51.092Z,1.03
2022-08-26T20:16:18.120Z,1.00
2022-08-26T20:19:03.843Z,1.07
2022-08-26T20:21:35.698Z,1.00
2022-08-26T20:24:06.719Z,0.87
2022-08-26T20:26:35.459Z,1.60
2022-08-26T20:29:02.745Z,1.03
2022-08-26T20:31:30.069Z,0.70
2022-08-26T20:33:57.612Z,0.60
2022-08-26T20:36:27.063Z,0.70
2022-08-26T20:38:54.764Z,0.50
2022-08-26T20:41:23.138Z,0.60
2022-08-26T20:43:52.583Z,0.70
2022-08-26T20:46:22.971Z,0.50
2022-08-26T20:48:52.507Z,0.57
2022-08-26T20:51:19.974Z,0.50
2022-08-26T20:53:46.975Z,0.83
2022-08-26T20:56:15.363Z,0.70
2022-08-26T20:58:42.729Z,0.73
2022-08-26T21:01:18.257Z,0.50
2022-08-26T21:03:45.581Z,0.60
2022-08-26T21:06:12.734Z,0.40
2022-08-26T21:08:43.311Z,0.40
2022-08-26T21:11:10.664Z,0.40
2022-08-26T21:14:01.140Z,0.80
2022-08-26T21:16:25.608Z,0.60
2022-08-26T21:18:52.882Z,0.80
2022-08-26T21:21:20.087Z,0.80
2022-08-26T21:23:52.282Z,0.90
2022-08-26T21:26:19.318Z,0.73
2022-08-26T21:28:46.616Z,0.40
2022-08-26T21:31:16.978Z,0.53
2022-08-26T21:33:44.926Z,0.67
2022-08-26T21:36:14.425Z,0.30
2022-08-26T21:38:41.813Z,0.40
2022-08-26T21:41:13.053Z,0.40
2022-08-26T21:43:42.240Z,0.50
2022-08-26T21:46:14.793Z,0.40
2022-08-26T21:48:51.042Z,0.53
2022-08-26T21:51:20.193Z,0.50
2022-08-26T21:53:47.724Z,0.60
2022-08-26T21:56:16.658Z,0.47
2022-08-26T21:58:43.760Z,0.60
2022-08-26T22:01:13.083Z,0.70
2022-08-26T22:03:47.418Z,0.50
2022-08-26T22:06:20.101Z,0.60
2022-08-26T22:08:47.332Z,0.57
2022-08-26T22:11:14.748Z,0.50
2022-08-26T22:13:42.600Z,0.70
2022-08-26T22:16:10.222Z,0.60
2022-08-26T22:18:38.005Z,0.70
2022-08-26T22:21:10.544Z,0.40
2022-08-26T22:23:38.608Z,1.63
2022-08-26T22:26:07.185Z,0.50
2022-08-26T22:28:34.571Z,0.60
2022-08-26T22:31:02.153Z,0.50
2022-08-26T22:33:29.255Z,0.60
2022-08-26T22:35:56.384Z,0.53
2022-08-26T22:38:24.115Z,0.60
2022-08-26T22:41:00.445Z,0.83
2022-08-26T22:43:29.208Z,0.67
2022-08-26T22:45:56.878Z,0.50
2022-08-26T22:48:25.687Z,0.50
2022-08-26T22:50:59.983Z,0.60
2022-08-26T22:53:27.379Z,0.67
2022-08-26T22:55:54.625Z,0.50
2022-08-26T22:58:30.831Z,0.57
2022-08-26T23:00:59.397Z,0.70
2022-08-26T23:03:26.966Z,1.20
2022-08-26T23:05:55.904Z,1.13
2022-08-26T23:08:23.490Z,0.60
2022-08-26T23:10:50.938Z,0.60
2022-08-26T23:13:18.720Z,0.60
2022-08-26T23:15:46.183Z,0.90
2022-08-26T23:18:14.411Z,0.73
2022-08-26T23:20:41.771Z,1.07
2022-08-26T23:23:08.780Z,0.80
2022-08-26T23:25:35.789Z,0.70
2022-08-26T23:28:03.029Z,1.00
2022-08-26T23:30:32.622Z,0.80
2022-08-26T23:32:59.789Z,0.83
2022-08-26T23:35:27.184Z,0.80
2022-08-26T23:37:54.115Z,0.80
2022-08-26T23:40:32.274Z,0.83
2022-08-26T23:43:01.043Z,1.00
2022-08-26T23:45:28.386Z,0.80
2022-08-26T23:47:55.663Z,1.13
2022-08-26T23:50:44.983Z,1.03
2022-08-26T23:53:19.497Z,0.90
2022-08-26T23:55:51.598Z,0.67
2022-08-26T23:58:20.516Z,0.80
